createdAt,value
2022-09-11T00:00:39.661Z,99572.78
2022-09-11T00:03:06.026Z,99590.84
2022-09-11T00:05:32.406Z,99583.34
2022-09-11T00:07:58.762Z,99579.31
2022-09-11T00:10:25.144Z,99580.47
2022-09-11T00:12:51.450Z,99583.47
2022-09-11T00:15:17.906Z,99575.28
2022-09-11T00:17:44.221Z,99585.66
2022-09-11T00:20:10.689Z,99581.78
2022-09-11T00:22:37.141Z,99584.16
2022-09-11T00:25:03.566Z,99589.47
2022-09-11T00:27:29.888Z,99585.94
2022-09-11T00:29:57.738Z,99589.13
2022-09-11T00:32:24.349Z,99589.97
2022-09-11T00:34:50.828Z,99595.00
2022-09-11T00:37:17.169Z,99601.63
2022-09-11T00:39:43.547Z,99605.81
2022-09-11T00:42:10.118Z,99593.97
2022-09-11T00:44:37.777Z,99603.81
2022-09-11T00:47:09.582Z,99603.00
2022-09-11T00:49:40.215Z,99607.31
2022-09-11T00:52:13.424Z,99603.63
2022-09-11T00:54:52.563Z,99606.28
2022-09-11T00:57:23.919Z,99616.34
2022-09-11T00:59:52.794Z,99614.00
2022-09-11T01:02:26.728Z,99617.66
2022-09-11T01:04:55.667Z,99614.97
2022-09-11T01:07:24.059Z,99611.31
2022-09-11T01:09:51.147Z,99615.59
2022-09-11T01:12:26.614Z,99610.28
2022-09-11T01:15:08.002Z,99619.34
2022-09-11T01:17:37.197Z,99606.66
2022-09-11T01:20:19.306Z,99612.44
2022-09-11T01:23:19.492Z,99600.09
2022-09-11T01:26:01.243Z,99609.75
2022-09-11T01:28:54.616Z,99605.59
2022-09-11T01:31:25.488Z,99604.06
2022-09-11T01:34:04.774Z,99611.75
2022-09-11T01:36:44.353Z,99616.47
2022-09-11T01:39:13.588Z,99614.94
2022-09-11T01:41:50.980Z,99620.25
2022-09-11T01:44:40.569Z,99618.44
2022-09-11T01:47:11.751Z,99615.69
2022-09-11T01:49:45.266Z,99622.19
2022-09-11T01:52:24.243Z,99620.88
2022-09-11T01:54:56.029Z,99627.56
2022-09-11T01:57:56.234Z,99628.91
2022-09-11T02:00:23.309Z,99636.03
2022-09-11T02:03:06.076Z,99639.88
2022-09-11T02:06:04.228Z,99641.34
2022-09-11T02:08:50.054Z,99651.88
2022-09-11T02:11:20.596Z,99642.84
2022-09-11T02:14:04.018Z,99640.19
2022-09-11T02:16:56.022Z,99648.56
2022-09-11T02:19:28.492Z,99658.53
2022-09-11T02:21:57.068Z,99648.69
2022-09-11T02:24:23.674Z,99646.19
2022-09-11T02:26:54.892Z,99656.00
2022-09-11T02:29:21.506Z,99656.19
2022-09-11T02:31:48.881Z,99664.00
2022-09-11T02:34:17.801Z,99669.25
2022-09-11T02:37:01.188Z,99681.03
2022-09-11T02:39:34.380Z,99675.72
2022-09-11T02:42:27.580Z,99681.38
2022-09-11T02:45:23.742Z,99680.19
2022-09-11T02:48:14.679Z,99685.22
2022-09-11T02:50:48.842Z,99687.22
2022-09-11T02:53:28.986Z,99684.44
2022-09-11T02:56:26.221Z,99688.41
2022-09-11T02:59:01.341Z,99697.03
2022-09-11T03:01:29.616Z,99701.91
2022-09-11T03:03:57.319Z,99687.88
2022-09-11T03:06:27.288Z,99697.22
2022-09-11T03:08:53.782Z,99693.78
2022-09-11T03:11:20.850Z,99698.69
2022-09-11T03:13:49.278Z,99701.28
2022-09-11T03:16:16.757Z,99700.06
2022-09-11T03:18:43.874Z,99705.22
2022-09-11T03:21:11.310Z,99706.59
2022-09-11T03:23:38.174Z,99706.56
2022-09-11T03:26:04.576Z,99707.06
2022-09-11T03:28:32.019Z,99714.91
2022-09-11T03:30:59.172Z,99706.69
2022-09-11T03:33:26.176Z,99701.72
2022-09-11T03:35:52.537Z,99703.25
2022-09-11T03:38:20.002Z,99712.22
2022-09-11T03:40:46.838Z,99712.41
2022-09-11T03:43:13.318Z,99699.53
2022-09-11T03:45:39.867Z,99711.25
2022-09-11T03:48:08.469Z,99714.38
2022-09-11T03:50:34.841Z,99711.88
2022-09-11T03:53:01.418Z,99716.13
2022-09-11T03:55:28.588Z,99708.03
2022-09-11T03:57:55.210Z,99711.66
2022-09-11T04:00:24.000Z,99714.78
2022-09-11T04:02:57.762Z,99714.09
2022-09-11T04:05:34.374Z,99714.41
2022-09-11T04:08:02.152Z,99709.78
2022-09-11T04:10:28.822Z,99710.06
2022-09-11T04:12:57.145Z,99708.59
2022-09-11T04:15:23.568Z,99715.56
2022-09-11T04:17:49.941Z,99710.38
2022-09-11T04:20:16.784Z,99721.25
2022-09-11T04:22:45.646Z,99713.72
2022-09-11T04:25:12.985Z,99717.91
2022-09-11T04:27:40.274Z,99723.25
2022-09-11T04:30:10.548Z,99716.53
2022-09-11T04:32:37.022Z,99721.03
2022-09-11T04:35:03.848Z,99728.81
2022-09-11T04:37:35.803Z,99725.25
2022-09-11T04:40:03.142Z,99725.63
2022-09-11T04:42:30.981Z,99733.16
2022-09-11T04:44:57.933Z,99737.03
2022-09-11T04:47:24.317Z,99728.41
2022-09-11T04:49:50.656Z,99735.97
2022-09-11T04:52:17.099Z,99727.38
2022-09-11T04:54:43.526Z,99740.31
2022-09-11T04:57:10.302Z,99743.72
2022-09-11T04:59:38.910Z,99745.09
2022-09-11T05:02:08.705Z,99745.41
2022-09-11T05:04:39.088Z,99740.38
2022-09-11T05:07:05.742Z,99752.66
2022-09-11T05:09:32.096Z,99747.34
2022-09-11T05:11:58.928Z,99737.78
2022-09-11T05:14:30.074Z,99752.97
2022-09-11T05:16:56.786Z,99757.00
2022-09-11T05:19:25.518Z,99758.69
2022-09-11T05:21:51.920Z,99751.69
2022-09-11T05:24:18.396Z,99754.00
2022-09-11T05:26:44.803Z,99763.69
2022-09-11T05:29:14.801Z,99754.41
2022-09-11T05:31:53.120Z,99758.44
2022-09-11T05:34:21.118Z,99759.56
2022-09-11T05:36:49.005Z,99770.91
2022-09-11T05:39:16.614Z,99769.78
2022-09-11T05:41:43.094Z,99763.03
2022-09-11T05:44:09.562Z,99784.63
2022-09-11T05:46:37.484Z,99771.78
2022-09-11T05:49:03.923Z,99778.19
2022-09-11T05:51:30.404Z,99780.03
2022-09-11T05:53:58.565Z,99784.03
2022-09-11T05:56:26.210Z,99785.59
2022-09-11T05:58:57.932Z,99793.88
2022-09-11T06:01:31.152Z,99795.25
2022-09-11T06:04:12.206Z,99801.63
2022-09-11T06:06:40.760Z,99793.81
2022-09-11T06:09:07.567Z,99801.34
2022-09-11T06:11:34.290Z,99809.84
2022-09-11T06:14:01.890Z,99808.88
2022-09-11T06:16:31.693Z,99813.44
2022-09-11T06:19:05.811Z,99814.94
2022-09-11T06:21:32.248Z,99810.81
2022-09-11T06:24:05.611Z,99813.69
2022-09-11T06:26:32.748Z,99823.53
2022-09-11T06:29:00.157Z,99815.38
2022-09-11T06:31:27.513Z,99815.88
2022-09-11T06:33:54.923Z,99821.59
2022-09-11T06:36:24.278Z,99820.59
2022-09-11T06:38:55.565Z,99824.94
2022-09-11T06:41:24.687Z,99823.66
2022-09-11T06:43:53.913Z,99825.97
2022-09-11T06:46:22.960Z,99826.53
2022-09-11T06:48:50.644Z,99823.53
2022-09-11T06:51:23.914Z,99823.22
2022-09-11T06:53:57.752Z,99822.72
2022-09-11T06:56:26.864Z,99834.59
2022-09-11T06:58:54.031Z,99829.94
2022-09-11T07:01:24.450Z,99833.00
2022-09-11T07:03:56.134Z,99836.00
2022-09-11T07:06:26.293Z,99833.03
2022-09-11T07:09:02.719Z,99843.41
2022-09-11T07:11:44.889Z,99842.53
2022-09-11T07:14:11.410Z,99846.75
2022-09-11T07:16:40.578Z,99848.56
2022-09-11T07:19:10.431Z,99844.22
2022-09-11T07:21:38.524Z,99847.25
2022-09-11T07:24:06.068Z,99840.25
2022-09-11T07:26:39.482Z,99848.66
2022-09-11T07:29:14.457Z,99837.63
2022-09-11T07:31:42.653Z,99837.97
2022-09-11T07:34:10.816Z,99836.00
2022-09-11T07:36:37.542Z,99843.34
2022-09-11T07:39:07.309Z,99841.03
2022-09-11T07:41:38.685Z,99839.03
2022-09-11T07:44:12.908Z,99841.06
2022-09-11T07:46:41.356Z,99846.25
2022-09-11T07:49:10.119Z,99847.06
2022-09-11T07:51:37.750Z,99840.72
2022-09-11T07:54:06.148Z,99839.03
2022-09-11T07:56:34.783Z,99852.72
2022-09-11T07:59:08.193Z,99850.22
2022-09-11T08:01:36.570Z,99845.88
2022-09-11T08:04:06.991Z,99852.03
2022-09-11T08:06:36.696Z,99852.03
2022-09-11T08:09:08.617Z,99856.06
2022-09-11T08:11:45.828Z,99864.91
2022-09-11T08:14:13.658Z,99863.53
2022-09-11T08:16:41.537Z,99857.00
2022-09-11T08:19:14.545Z,99862.00
2022-09-11T08:21:41.266Z,99852.78
2022-09-11T08:24:07.996Z,99852.59
2022-09-11T08:26:36.165Z,99859.47
2022-09-11T08:29:02.644Z,99871.91
2022-09-11T08:31:32.629Z,99873.78
2022-09-11T08:33:59.408Z,99871.75
2022-09-11T08:36:28.542Z,99881.50
2022-09-11T08:38:56.331Z,99881.38
2022-09-11T08:41:43.676Z,99879.22
2022-09-11T08:44:10.115Z,99879.72
2022-09-11T08:46:42.281Z,99888.63
2022-09-11T08:49:39.591Z,99883.47
2022-09-11T08:52:06.482Z,99881.47
2022-09-11T08:54:38.126Z,99882.97
2022-09-11T08:57:20.540Z,99892.81
2022-09-11T09:00:14.541Z,99888.66
2022-09-11T09:02:57.772Z,99888.97
2022-09-11T09:05:44.260Z,99893.31
2022-09-11T09:08:45.157Z,99895.50
2022-09-11T09:11:14.645Z,99899.03
2022-09-11T09:13:42.685Z,99898.03
2022-09-11T09:16:21.281Z,99896.19
2022-09-11T09:18:55.536Z,99907.88
2022-09-11T09:21:49.495Z,99913.97
2022-09-11T09:24:19.282Z,99907.94
2022-09-11T09:26:54.111Z,99907.97
2022-09-11T09:29:23.421Z,99907.78
2022-09-11T09:32:13.735Z,99908.63
2022-09-11T09:34:43.798Z,99909.13
2022-09-11T09:37:17.444Z,99909.47
2022-09-11T09:39:45.029Z,99916.16
2022-09-11T09:42:24.094Z,99919.50
2022-09-11T09:45:09.926Z,99911.78
2022-09-11T09:47:43.724Z,99918.50
2022-09-11T09:50:32.117Z,99913.81
2022-09-11T09:53:29.665Z,99920.66
2022-09-11T09:55:58.034Z,99918.50
2022-09-11T09:58:30.338Z,99931.38
2022-09-11T10:00:56.678Z,99922.50
2022-09-11T10:03:24.865Z,99921.81
2022-09-11T10:05:54.524Z,99918.75
2022-09-11T10:08:31.327Z,99922.78
2022-09-11T10:11:06.705Z,99918.94
2022-09-11T10:13:51.791Z,99923.84
2022-09-11T10:16:27.013Z,99921.16
2022-09-11T10:18:55.864Z,99922.69
2022-09-11T10:21:29.557Z,99918.59
2022-09-11T10:24:02.139Z,99917.97
2022-09-11T10:26:43.202Z,99914.63
2022-09-11T10:29:15.905Z,99914.69
2022-09-11T10:31:49.758Z,99921.41
2022-09-11T10:34:22.256Z,99915.13
2022-09-11T10:37:23.416Z,99908.22
2022-09-11T10:39:50.689Z,99908.69
2022-09-11T10:42:25.803Z,99907.16
2022-09-11T10:44:54.160Z,99912.31
2022-09-11T10:47:20.471Z,99914.06
2022-09-11T10:49:47.771Z,99911.19
2022-09-11T10:52:14.092Z,99917.81
2022-09-11T10:55:03.582Z,99919.13
2022-09-11T10:57:43.765Z,99928.72
2022-09-11T11:00:25.560Z,99914.78
2022-09-11T11:03:00.344Z,99913.84
2022-09-11T11:05:40.600Z,99917.94
2022-09-11T11:08:50.817Z,99912.28
2022-09-11T11:11:31.575Z,99912.09
2022-09-11T11:14:21.119Z,99910.94
2022-09-11T11:16:59.935Z,99912.00
2022-09-11T11:20:07.190Z,99912.34
2022-09-11T11:22:56.098Z,99908.44
2022-09-11T11:25:43.780Z,99907.25
2022-09-11T11:28:43.302Z,99905.00
2022-09-11T11:31:40.312Z,99908.81
2022-09-11T11:34:18.989Z,99912.63
2022-09-11T11:36:45.972Z,99904.09
2022-09-11T11:39:22.262Z,99906.00
2022-09-11T11:42:07.086Z,99896.19
2022-09-11T11:45:00.284Z,99907.25
2022-09-11T11:47:35.665Z,99900.75
2022-09-11T11:50:08.168Z,99906.81
2022-09-11T11:53:07.113Z,99917.16
2022-09-11T11:55:43.066Z,99905.81
2022-09-11T11:58:43.562Z,99917.25
2022-09-11T12:01:20.937Z,99918.41
2022-09-11T12:03:54.814Z,99904.25
2022-09-11T12:06:21.206Z,99900.97
2022-09-11T12:08:48.339Z,99892.28
2022-09-11T12:11:18.874Z,99905.00
2022-09-11T12:13:47.750Z,99909.38
2022-09-11T12:16:20.046Z,99900.00
2022-09-11T12:19:20.762Z,99903.66
2022-09-11T12:21:52.857Z,99897.88
2022-09-11T12:24:22.103Z,99895.44
2022-09-11T12:27:35.551Z,99900.50
2022-09-11T12:30:21.161Z,99892.34
2022-09-11T12:32:49.694Z,99889.69
2022-09-11T12:35:21.305Z,99890.69
2022-09-11T12:37:55.651Z,99886.66
2022-09-11T12:40:48.329Z,99891.47
2022-09-11T12:43:36.497Z,99892.94
2022-09-11T12:46:06.112Z,99892.34
2022-09-11T12:48:38.812Z,99889.03
2022-09-11T12:51:16.468Z,99890.13
2022-09-11T12:53:47.102Z,99890.78
2022-09-11T12:56:20.201Z,99894.97
2022-09-11T12:58:51.793Z,99880.88
2022-09-11T13:01:24.827Z,99889.81
2022-09-11T13:04:19.131Z,99870.75
2022-09-11T13:06:48.856Z,99874.97
2022-09-11T13:09:40.653Z,99885.34
2022-09-11T13:12:25.627Z,99869.06
2022-09-11T13:14:56.434Z,99875.13
2022-09-11T13:17:28.507Z,99875.78
2022-09-11T13:20:03.354Z,99874.19
2022-09-11T13:22:31.213Z,99862.25
2022-09-11T13:25:13.958Z,99869.44
2022-09-11T13:27:46.578Z,99860.97
2022-09-11T13:30:19.220Z,99855.28
2022-09-11T13:32:48.917Z,99846.56
2022-09-11T13:35:25.486Z,99855.09
2022-09-11T13:38:18.385Z,99848.78
2022-09-11T13:40:49.729Z,99848.59
2022-09-11T13:43:20.689Z,99843.31
2022-09-11T13:45:47.546Z,99847.28
2022-09-11T13:48:23.939Z,99848.66
2022-09-11T13:50:51.438Z,99851.97
2022-09-11T13:53:20.151Z,99848.16
2022-09-11T13:55:48.194Z,99853.69
2022-09-11T13:58:24.160Z,99836.44
2022-09-11T14:00:52.756Z,99838.41
2022-09-11T14:03:24.333Z,99842.13
2022-09-11T14:05:54.022Z,99837.75
2022-09-11T14:08:32.370Z,99832.94
2022-09-11T14:11:10.445Z,99841.63
2022-09-11T14:13:41.339Z,99830.06
2022-09-11T14:16:13.825Z,99829.72
2022-09-11T14:18:53.116Z,99835.09
2022-09-11T14:21:22.965Z,99825.72
2022-09-11T14:23:57.334Z,99833.69
2022-09-11T14:26:30.885Z,99821.09
2022-09-11T14:29:27.934Z,99823.78
2022-09-11T14:32:14.975Z,99815.94
2022-09-11T14:34:41.317Z,99824.00
2022-09-11T14:37:12.124Z,99815.28
2022-09-11T14:40:06.779Z,99811.19
2022-09-11T14:42:36.372Z,99803.69
2022-09-11T14:45:20.342Z,99806.00
2022-09-11T14:47:46.717Z,99806.78
2022-09-11T14:50:13.619Z,99807.44
2022-09-11T14:52:42.423Z,99810.69
2022-09-11T14:55:19.394Z,99806.63
2022-09-11T14:57:46.669Z,99802.28
2022-09-11T15:00:15.146Z,99810.13
2022-09-11T15:02:42.056Z,99801.25
2022-09-11T15:05:17.058Z,99799.19
2022-09-11T15:07:46.379Z,99800.25
2022-09-11T15:10:13.978Z,99797.16
2022-09-11T15:12:40.369Z,99800.59
2022-09-11T15:15:07.338Z,99794.78
2022-09-11T15:17:36.166Z,99796.91
2022-09-11T15:20:08.999Z,99782.25
2022-09-11T15:22:36.415Z,99782.06
2022-09-11T15:25:03.522Z,99779.88
2022-09-11T15:27:29.895Z,99778.19
2022-09-11T15:29:56.270Z,99779.88
2022-09-11T15:32:23.159Z,99774.66
2022-09-11T15:34:51.554Z,99774.41
2022-09-11T15:37:18.049Z,99770.75
2022-09-11T15:39:44.483Z,99777.91
2022-09-11T15:42:11.528Z,99775.09
2022-09-11T15:44:37.972Z,99783.88
2022-09-11T15:47:04.740Z,99784.44
2022-09-11T15:49:31.709Z,99772.09
2022-09-11T15:51:59.545Z,99777.81
2022-09-11T15:54:26.958Z,99775.81
2022-09-11T15:56:54.111Z,99775.56
2022-09-11T15:59:20.498Z,99772.41
2022-09-11T16:01:46.994Z,99763.03
2022-09-11T16:04:18.876Z,99779.13
2022-09-11T16:06:47.543Z,99768.28
2022-09-11T16:09:19.735Z,99773.66
2022-09-11T16:11:47.874Z,99772.16
2022-09-11T16:14:23.236Z,99778.03
2022-09-11T16:16:50.709Z,99772.69
2022-09-11T16:19:19.918Z,99779.09
2022-09-11T16:21:46.904Z,99776.75
2022-09-11T16:24:15.709Z,99777.09
2022-09-11T16:26:44.017Z,99771.94
2022-09-11T16:29:12.343Z,99778.47
2022-09-11T16:31:40.029Z,99777.81
2022-09-11T16:34:06.972Z,99779.00
2022-09-11T16:36:38.375Z,99780.19
2022-09-11T16:39:06.414Z,99781.41
2022-09-11T16:41:32.825Z,99775.19
2022-09-11T16:44:00.018Z,99780.91
2022-09-11T16:46:26.921Z,99778.59
2022-09-11T16:48:59.798Z,99778.59
2022-09-11T16:51:28.291Z,99778.94
2022-09-11T16:53:54.718Z,99784.66
2022-09-11T16:56:23.091Z,99775.28
2022-09-11T16:58:49.545Z,99783.84
2022-09-11T17:01:18.911Z,99781.19
2022-09-11T17:03:48.430Z,99777.66
2022-09-11T17:06:16.656Z,99784.19
2022-09-11T17:08:44.570Z,99781.34
2022-09-11T17:11:14.441Z,99781.72
2022-09-11T17:13:41.783Z,99775.00
2022-09-11T17:16:16.111Z,99776.69
2022-09-11T17:18:53.341Z,99777.41
2022-09-11T17:21:22.877Z,99780.25
2022-09-11T17:23:50.358Z,99779.06
2022-09-11T17:26:17.077Z,99777.09
2022-09-11T17:28:47.101Z,99782.81
2022-09-11T17:31:14.705Z,99769.59
2022-09-11T17:33:42.284Z,99779.47
2022-09-11T17:36:10.348Z,99774.81
2022-09-11T17:38:38.306Z,99776.97
2022-09-11T17:41:08.007Z,99782.19
2022-09-11T17:43:36.114Z,99772.66
2022-09-11T17:46:05.564Z,99775.53
2022-09-11T17:48:32.279Z,99776.53
2022-09-11T17:51:03.638Z,99774.94
2022-09-11T17:53:38.724Z,99782.63
2022-09-11T17:56:14.838Z,99777.94
2022-09-11T17:58:43.881Z,99768.94
2022-09-11T18:01:16.509Z,99776.28
2022-09-11T18:03:44.044Z,99780.66
2022-09-11T18:06:18.618Z,99791.34
2022-09-11T18:08:46.134Z,99785.84
2022-09-11T18:11:12.712Z,99785.84
2022-09-11T18:13:39.569Z,99781.13
2022-09-11T18:16:10.855Z,99786.97
2022-09-11T18:18:39.345Z,99784.81
2022-09-11T18:21:10.482Z,99783.66
2022-09-11T18:23:39.636Z,99796.34
2022-09-11T18:26:07.185Z,99797.69
2022-09-11T18:28:34.122Z,99795.50
2022-09-11T18:31:01.760Z,99792.66
2022-09-11T18:33:28.256Z,99791.66
2022-09-11T18:35:54.734Z,99795.19
2022-09-11T18:38:21.106Z,99795.66
2022-09-11T18:40:55.950Z,99803.38
2022-09-11T18:43:22.327Z,99808.56
2022-09-11T18:45:48.696Z,99804.69
2022-09-11T18:48:15.282Z,99806.84
2022-09-11T18:50:41.651Z,99815.03
2022-09-11T18:53:08.113Z,99817.53
2022-09-11T18:55:34.510Z,99807.38
2022-09-11T18:58:01.648Z,99818.06
2022-09-11T19:00:28.458Z,99825.75
2022-09-11T19:02:56.420Z,99830.19
2022-09-11T19:05:24.990Z,99826.53
2022-09-11T19:07:51.649Z,99829.38
2022-09-11T19:10:18.348Z,99837.06
2022-09-11T19:12:47.979Z,99835.38
2022-09-11T19:15:14.397Z,99837.09
2022-09-11T19:17:40.811Z,99841.63
2022-09-11T19:20:09.640Z,99831.41
2022-09-11T19:22:36.016Z,99830.63
2022-09-11T19:25:02.445Z,99826.63
2022-09-11T19:27:31.541Z,99831.47
2022-09-11T19:29:58.232Z,99837.78
2022-09-11T19:32:25.134Z,99838.66
2022-09-11T19:34:51.625Z,99837.75
2022-09-11T19:37:20.024Z,99836.88
2022-09-11T19:39:48.305Z,99840.22
2022-09-11T19:42:14.686Z,99843.81
2022-09-11T19:44:41.202Z,99846.03
2022-09-11T19:47:07.935Z,99845.47
2022-09-11T19:49:34.317Z,99847.81
2022-09-11T19:52:01.555Z,99845.84
2022-09-11T19:54:30.117Z,99844.66
2022-09-11T19:56:56.609Z,99845.16
2022-09-11T19:59:23.102Z,99840.81
2022-09-11T20:01:49.492Z,99844.59
2022-09-11T20:04:17.561Z,99845.63
2022-09-11T20:12:16.360Z,99848.34
2022-09-11T20:14:42.964Z,99840.97
2022-09-11T20:17:10.135Z,99844.63
2022-09-11T20:19:36.584Z,99846.91
2022-09-11T20:22:03.012Z,99848.06
2022-09-11T20:24:29.377Z,99845.94
2022-09-11T20:26:55.757Z,99844.13
2022-09-11T20:29:22.082Z,99847.78
2022-09-11T20:31:50.985Z,99840.84
2022-09-11T20:34:18.865Z,99852.03
2022-09-11T20:36:45.797Z,99851.09
2022-09-11T20:39:16.130Z,99850.09
2022-09-11T20:41:42.988Z,99847.47
2022-09-11T20:44:09.897Z,99845.06
2022-09-11T20:46:36.441Z,99842.28
2022-09-11T20:49:04.590Z,99841.19
2022-09-11T20:51:32.921Z,99841.41
2022-09-11T20:54:00.574Z,99845.69
2022-09-11T20:56:27.956Z,99848.50
2022-09-11T20:58:54.322Z,99839.63
2022-09-11T21:01:22.788Z,99833.81
2022-09-11T21:03:54.744Z,99838.06
2022-09-11T21:06:26.126Z,99843.63
2022-09-11T21:08:55.271Z,99838.06
2022-09-11T21:11:21.980Z,99830.28
2022-09-11T21:13:48.546Z,99826.88
2022-09-11T21:16:16.005Z,99841.63
2022-09-11T21:18:54.510Z,99841.13
2022-09-11T21:21:22.552Z,99838.00
2022-09-11T21:23:53.171Z,99839.66
2022-09-11T21:26:19.574Z,99835.03
2022-09-11T21:28:45.999Z,99841.00
2022-09-11T21:31:12.656Z,99839.28
2022-09-11T21:33:39.705Z,99833.47
2022-09-11T21:36:07.218Z,99836.66
2022-09-11T21:38:33.716Z,99828.84
2022-09-11T21:41:02.416Z,99832.50
2022-09-11T21:43:29.110Z,99828.66
2022-09-11T21:45:56.120Z,99825.25
2022-09-11T21:48:23.331Z,99823.91
2022-09-11T21:50:50.190Z,99818.47
2022-09-11T21:53:17.063Z,99818.16
2022-09-11T21:55:45.420Z,99809.53
2022-09-11T21:58:15.975Z,99811.84
2022-09-11T22:00:43.455Z,99808.66
2022-09-11T22:03:16.617Z,99825.06
2022-09-11T22:05:44.990Z,99826.97
2022-09-11T22:08:13.418Z,99810.97
2022-09-11T22:10:48.379Z,99816.72
2022-09-11T22:13:15.711Z,99814.56
2022-09-11T22:15:43.853Z,99815.38
2022-09-11T22:18:10.465Z,99814.84
2022-09-11T22:20:37.714Z,99815.84
2022-09-11T22:23:04.969Z,99810.84
2022-09-11T22:25:32.792Z,99816.00
2022-09-11T22:27:59.335Z,99813.59
2022-09-11T22:30:27.902Z,99816.97
2022-09-11T22:32:54.581Z,99813.84
2022-09-11T22:35:20.947Z,99807.75
2022-09-11T22:37:47.293Z,99813.16
2022-09-11T22:40:13.673Z,99812.09
2022-09-11T22:42:40.088Z,99800.75
2022-09-11T22:45:07.868Z,99803.66
2022-09-11T22:47:35.136Z,99810.47
2022-09-11T22:50:01.845Z,99811.31
2022-09-11T22:52:29.076Z,99810.75
2022-09-11T22:54:55.430Z,99813.28
2022-09-11T22:57:21.915Z,99814.41
2022-09-11T22:59:48.942Z,99813.00
2022-09-11T23:02:15.480Z,99805.69
2022-09-11T23:05:04.789Z,99804.56
2022-09-11T23:07:31.142Z,99804.44
2022-09-11T23:09:57.613Z,99795.63
2022-09-11T23:12:24.534Z,99806.53
2022-09-11T23:14:52.542Z,99807.28
2022-09-11T23:17:18.874Z,99802.53
2022-09-11T23:19:45.315Z,99795.44
2022-09-11T23:22:11.714Z,99805.88
2022-09-11T23:24:38.055Z,99809.53
2022-09-11T23:27:04.580Z,99804.66
2022-09-11T23:29:30.966Z,99806.50
2022-09-11T23:31:57.529Z,99803.00
2022-09-11T23:34:23.911Z,99806.78
2022-09-11T23:36:50.379Z,99801.59
2022-09-11T23:39:16.746Z,99799.94
2022-09-11T23:41:43.110Z,99809.34
2022-09-11T23:44:10.078Z,99805.72
2022-09-11T23:46:36.471Z,99805.03
2022-09-11T23:49:02.896Z,99810.50
2022-09-11T23:51:29.256Z,99792.47
2022-09-11T23:53:55.584Z,99795.84
2022-09-11T23:56:22.444Z,99795.28
2022-09-11T23:58:49.399Z,99797.41
